createdAt,value
2022-12-01T00:00:08.226Z,6.07
2022-12-01T00:02:41.628Z,7.23
2022-12-01T00:05:15.139Z,8.33
2022-12-01T00:07:49.588Z,9.07
2022-12-01T00:10:29.731Z,9.65
2022-12-01T00:13:06.317Z,9.67
2022-12-01T00:15:41.394Z,8.44
2022-12-01T00:18:14.762Z,7.27
2022-12-01T00:20:51.673Z,6.40
2022-12-01T00:23:25.190Z,5.75
2022-12-01T00:26:03.294Z,5.26
2022-12-01T00:28:36.656Z,4.85
2022-12-01T00:31:14.427Z,4.52
2022-12-01T00:33:48.052Z,5.44
2022-12-01T00:36:21.886Z,7.33
2022-12-01T00:38:58.839Z,7.89
2022-12-01T00:41:31.903Z,6.98
2022-12-01T00:44:07.445Z,6.07
2022-12-01T00:46:40.975Z,5.30
2022-12-01T00:49:16.962Z,4.77
2022-12-01T00:51:50.606Z,4.78
2022-12-01T00:54:23.698Z,6.62
2022-12-01T00:57:02.271Z,7.81
2022-12-01T00:59:35.989Z,8.64
2022-12-01T01:02:11.045Z,8.98
2022-12-01T01:04:44.445Z,7.93
2022-12-01T01:07:18.207Z,6.77
2022-12-01T01:09:53.518Z,5.91
2022-12-01T01:12:26.781Z,5.30
2022-12-01T01:15:00.395Z,4.83
2022-12-01T01:17:35.840Z,4.46
2022-12-01T01:20:13.070Z,4.52
2022-12-01T01:22:46.382Z,6.42
2022-12-01T01:25:19.906Z,7.81
2022-12-01T01:27:52.888Z,8.41
2022-12-01T01:30:26.696Z,8.46
2022-12-01T01:33:00.608Z,7.51
2022-12-01T01:35:33.992Z,6.49
2022-12-01T01:38:07.267Z,5.71
2022-12-01T01:40:48.415Z,5.09
2022-12-01T01:43:43.403Z,5.16
2022-12-01T01:46:20.490Z,6.99
2022-12-01T01:49:00.398Z,8.16
2022-12-01T01:51:40.048Z,8.77
2022-12-01T01:54:17.808Z,8.93
2022-12-01T01:56:54.595Z,7.84
2022-12-01T01:59:36.054Z,6.69
2022-12-01T02:02:14.479Z,5.77
2022-12-01T02:04:54.941Z,5.06
2022-12-01T02:07:28.400Z,4.55
2022-12-01T02:10:02.312Z,4.47
2022-12-01T02:13:05.195Z,6.08
2022-12-01T02:15:52.324Z,7.65
2022-12-01T02:18:42.998Z,8.32
2022-12-01T02:21:56.678Z,8.61
2022-12-01T02:25:08.092Z,7.67
2022-12-01T02:28:07.958Z,6.32
2022-12-01T02:30:49.356Z,5.39
2022-12-01T02:33:30.835Z,4.74
2022-12-01T02:36:13.544Z,4.91
2022-12-01T02:38:57.502Z,6.41
2022-12-01T02:41:38.788Z,7.20
2022-12-01T02:44:19.862Z,8.00
2022-12-01T02:47:01.095Z,8.63
2022-12-01T02:49:41.728Z,7.78
2022-12-01T02:52:18.422Z,6.56
2022-12-01T02:54:53.482Z,5.65
2022-12-01T02:57:27.565Z,4.96
2022-12-01T03:00:02.826Z,4.62
2022-12-01T03:02:49.963Z,5.53
2022-12-01T03:05:30.831Z,6.41
2022-12-01T03:08:19.985Z,7.31
2022-12-01T03:10:59.454Z,7.71
2022-12-01T03:13:44.864Z,7.16
2022-12-01T03:16:27.902Z,6.06
2022-12-01T03:19:07.514Z,5.24
2022-12-01T03:21:46.076Z,4.97
2022-12-01T03:24:24.096Z,6.24
2022-12-01T03:27:02.065Z,7.37
2022-12-01T03:29:41.667Z,8.20
2022-12-01T03:32:20.392Z,8.56
2022-12-01T03:34:59.529Z,7.46
2022-12-01T03:37:37.965Z,6.30
2022-12-01T03:40:18.577Z,5.44
2022-12-01T03:43:00.987Z,4.77
2022-12-01T03:45:43.220Z,4.30
2022-12-01T03:48:16.710Z,4.55
2022-12-01T03:51:04.289Z,6.36
2022-12-01T03:53:50.766Z,7.53
2022-12-01T03:56:32.046Z,7.97
2022-12-01T03:59:11.025Z,8.11
2022-12-01T04:01:44.531Z,7.26
2022-12-01T04:04:18.702Z,6.22
2022-12-01T04:06:53.349Z,5.40
2022-12-01T04:09:26.687Z,4.79
2022-12-01T04:12:17.350Z,4.60
2022-12-01T04:14:50.859Z,5.95
2022-12-01T04:17:24.374Z,7.22
2022-12-01T04:19:59.179Z,8.02
2022-12-01T04:22:33.075Z,8.23
2022-12-01T04:25:06.898Z,7.33
2022-12-01T04:27:41.363Z,6.28
2022-12-01T04:30:16.704Z,5.48
2022-12-01T04:32:49.802Z,4.87
2022-12-01T04:35:23.200Z,4.71
2022-12-01T04:37:56.274Z,5.96
2022-12-01T04:40:29.911Z,7.26
2022-12-01T04:43:03.645Z,7.82
2022-12-01T04:45:36.891Z,8.14
2022-12-01T04:48:10.669Z,8.13
2022-12-01T04:50:45.495Z,7.19
2022-12-01T04:53:18.876Z,6.20
2022-12-01T04:55:52.266Z,5.44
2022-12-01T04:58:26.334Z,4.87
2022-12-01T05:01:05.726Z,4.41
2022-12-01T05:03:41.881Z,4.33
2022-12-01T05:06:18.503Z,5.62
2022-12-01T05:08:53.626Z,7.22
2022-12-01T05:11:27.931Z,7.97
2022-12-01T05:14:01.011Z,8.40
2022-12-01T05:16:45.634Z,8.74
2022-12-01T05:19:42.043Z,9.40
2022-12-01T05:22:15.486Z,8.54
2022-12-01T05:24:48.874Z,7.36
2022-12-01T05:27:22.215Z,6.45
2022-12-01T05:29:56.308Z,5.83
2022-12-01T05:32:30.315Z,5.32
2022-12-01T05:35:03.345Z,4.92
2022-12-01T05:37:36.419Z,4.57
2022-12-01T05:40:12.944Z,4.29
2022-12-01T05:42:46.161Z,4.48
2022-12-01T05:45:20.366Z,6.16
2022-12-01T05:47:55.894Z,7.19
2022-12-01T05:50:31.479Z,7.54
2022-12-01T05:53:05.357Z,8.03
2022-12-01T05:55:40.054Z,8.56
2022-12-01T05:58:13.590Z,9.34
2022-12-01T06:00:48.045Z,9.69
2022-12-01T06:03:21.969Z,8.62
2022-12-01T06:05:57.788Z,7.39
2022-12-01T06:08:32.690Z,6.47
2022-12-01T06:11:07.640Z,5.81
2022-12-01T06:13:41.436Z,5.28
2022-12-01T06:16:15.928Z,4.85
2022-12-01T06:18:48.977Z,5.05
2022-12-01T06:21:22.868Z,6.01
2022-12-01T06:23:56.533Z,7.06
2022-12-01T06:26:29.802Z,8.09
2022-12-01T06:29:05.240Z,8.94
2022-12-01T06:31:39.254Z,9.17
2022-12-01T06:34:13.855Z,8.13
2022-12-01T06:36:47.319Z,6.99
2022-12-01T06:39:22.081Z,6.12
2022-12-01T06:41:55.773Z,5.52
2022-12-01T06:44:30.508Z,5.02
2022-12-01T06:47:04.341Z,4.95
2022-12-01T06:49:38.582Z,6.11
2022-12-01T06:52:12.930Z,7.34
2022-12-01T06:54:46.990Z,8.31
2022-12-01T06:57:20.493Z,8.78
2022-12-01T06:59:54.134Z,8.68
2022-12-01T07:02:28.192Z,7.63
2022-12-01T07:05:01.395Z,6.67
2022-12-01T07:07:36.667Z,5.94
2022-12-01T07:10:14.125Z,5.32
2022-12-01T07:12:47.468Z,5.24
2022-12-01T07:15:24.711Z,6.44
2022-12-01T07:17:58.104Z,7.65
2022-12-01T07:20:32.928Z,8.41
2022-12-01T07:23:06.773Z,8.38
2022-12-01T07:25:40.180Z,7.40
2022-12-01T07:28:14.018Z,6.42
2022-12-01T07:30:48.180Z,5.69
2022-12-01T07:33:21.719Z,5.11
2022-12-01T07:35:58.477Z,4.64
2022-12-01T07:38:33.904Z,4.53
2022-12-01T07:41:12.667Z,5.57
2022-12-01T07:43:48.032Z,6.73
2022-12-01T07:46:24.439Z,7.68
2022-12-01T07:48:59.726Z,8.12
2022-12-01T07:51:33.575Z,7.77
2022-12-01T07:54:09.575Z,6.74
2022-12-01T07:56:43.678Z,5.86
2022-12-01T07:59:17.441Z,5.19
2022-12-01T08:01:53.050Z,5.38
2022-12-01T08:04:26.438Z,6.69
2022-12-01T08:06:59.798Z,7.58
2022-12-01T08:09:33.801Z,8.10
2022-12-01T08:12:08.043Z,8.23
2022-12-01T08:14:41.473Z,7.24
2022-12-01T08:17:15.131Z,6.29
2022-12-01T08:19:49.294Z,5.59
2022-12-01T08:22:23.702Z,5.09
2022-12-01T08:24:57.582Z,5.03
2022-12-01T08:27:31.077Z,6.17
2022-12-01T08:30:08.004Z,7.29
2022-12-01T08:32:42.214Z,8.08
2022-12-01T08:35:15.919Z,8.67
2022-12-01T08:37:49.639Z,9.07
2022-12-01T08:40:23.634Z,8.09
2022-12-01T08:42:58.677Z,6.99
2022-12-01T08:45:34.664Z,6.13
2022-12-01T08:48:08.802Z,5.50
2022-12-01T08:50:42.590Z,5.18
2022-12-01T08:53:16.237Z,6.52
2022-12-01T08:55:49.908Z,8.14
2022-12-01T08:58:23.008Z,8.98
2022-12-01T09:01:02.093Z,9.26
2022-12-01T09:03:36.930Z,8.22
2022-12-01T09:06:15.358Z,7.15
2022-12-01T09:08:49.746Z,6.35
2022-12-01T09:11:24.423Z,5.78
2022-12-01T09:13:57.801Z,6.42
2022-12-01T09:16:33.538Z,8.03
2022-12-01T09:19:07.915Z,8.95
2022-12-01T09:21:43.170Z,9.29
2022-12-01T09:24:20.066Z,8.34
2022-12-01T09:26:58.326Z,7.32
2022-12-01T09:29:31.926Z,6.59
2022-12-01T09:32:05.442Z,6.05
2022-12-01T09:34:40.183Z,5.61
2022-12-01T09:37:13.458Z,5.61
2022-12-01T09:39:47.961Z,7.18
2022-12-01T09:42:32.271Z,8.68
2022-12-01T09:45:27.581Z,9.58
2022-12-01T09:48:04.906Z,9.58
2022-12-01T09:50:39.828Z,8.40
2022-12-01T09:53:19.380Z,7.35
2022-12-01T09:56:00.728Z,6.55
2022-12-01T09:58:39.618Z,5.91
2022-12-01T10:01:27.058Z,5.41
2022-12-01T10:04:07.505Z,4.95
2022-12-01T10:06:51.019Z,5.07
2022-12-01T10:09:33.198Z,6.67
2022-12-01T10:12:18.066Z,8.05
2022-12-01T10:14:53.985Z,8.87
2022-12-01T10:17:45.029Z,8.76
2022-12-01T10:20:28.555Z,7.54
2022-12-01T10:23:43.860Z,6.58
2022-12-01T10:26:29.027Z,5.72
2022-12-01T10:29:25.343Z,5.17
2022-12-01T10:32:04.479Z,4.89
2022-12-01T10:34:43.661Z,6.18
2022-12-01T10:37:28.401Z,7.35
2022-12-01T10:40:04.577Z,8.08
2022-12-01T10:42:43.223Z,8.42
2022-12-01T10:45:25.785Z,8.37
2022-12-01T10:48:19.408Z,7.38
2022-12-01T10:51:00.051Z,6.43
2022-12-01T10:53:42.862Z,5.75
2022-12-01T10:56:21.818Z,5.25
2022-12-01T10:58:59.437Z,4.89
2022-12-01T11:01:36.681Z,4.89
2022-12-01T11:04:31.213Z,6.41
2022-12-01T11:07:06.556Z,7.87
2022-12-01T11:09:39.918Z,8.47
2022-12-01T11:12:20.899Z,8.31
2022-12-01T11:14:57.658Z,7.24
2022-12-01T11:17:41.935Z,6.32
2022-12-01T11:20:39.451Z,5.64
2022-12-01T11:23:36.684Z,5.15
2022-12-01T11:26:18.053Z,6.18
2022-12-01T11:29:01.481Z,7.34
2022-12-01T11:31:48.872Z,8.23
2022-12-01T11:34:28.125Z,8.10
2022-12-01T11:37:04.714Z,6.91
2022-12-01T11:39:41.924Z,5.97
2022-12-01T11:42:27.316Z,5.26
2022-12-01T11:45:10.295Z,4.73
2022-12-01T11:48:11.378Z,4.41
2022-12-01T11:51:03.887Z,5.68
2022-12-01T11:53:39.851Z,7.23
2022-12-01T11:56:29.424Z,8.15
2022-12-01T11:59:08.157Z,8.72
2022-12-01T12:02:01.742Z,8.63
2022-12-01T12:04:58.357Z,7.38
2022-12-01T12:07:48.098Z,6.24
2022-12-01T12:10:38.384Z,5.43
2022-12-01T12:13:40.789Z,4.82
2022-12-01T12:16:31.923Z,4.98
2022-12-01T12:19:39.257Z,6.70
2022-12-01T12:22:38.471Z,7.98
2022-12-01T12:25:38.809Z,8.62
2022-12-01T12:28:37.976Z,8.28
2022-12-01T12:31:27.071Z,7.02
2022-12-01T12:34:25.866Z,6.04
2022-12-01T12:37:19.415Z,5.22
2022-12-01T12:40:24.523Z,4.98
2022-12-01T12:43:27.251Z,6.55
2022-12-01T12:46:24.911Z,7.67
2022-12-01T12:49:27.339Z,8.16
2022-12-01T12:52:10.403Z,7.10
2022-12-01T12:54:53.982Z,6.06
2022-12-01T12:57:42.013Z,5.25
2022-12-01T13:00:26.199Z,4.77
2022-12-01T13:03:06.502Z,5.89
2022-12-01T13:05:49.509Z,7.11
2022-12-01T13:08:30.730Z,8.30
2022-12-01T13:11:16.217Z,9.09
2022-12-01T13:14:02.448Z,8.53
2022-12-01T13:16:45.067Z,7.14
2022-12-01T13:19:27.999Z,6.02
2022-12-01T13:22:03.625Z,5.18
2022-12-01T13:24:37.817Z,4.55
2022-12-01T13:27:22.213Z,4.09
2022-12-01T13:29:59.642Z,4.07
2022-12-01T13:32:40.642Z,5.57
2022-12-01T13:35:30.863Z,6.66
2022-12-01T13:38:31.594Z,7.39
2022-12-01T13:41:31.906Z,7.58
2022-12-01T13:44:22.418Z,6.49
2022-12-01T13:47:07.358Z,5.44
2022-12-01T13:49:50.827Z,4.67
2022-12-01T13:52:52.201Z,4.12
2022-12-01T13:55:35.470Z,4.23
2022-12-01T13:58:49.269Z,5.78
2022-12-01T14:02:12.452Z,7.20
2022-12-01T14:04:46.221Z,6.96
2022-12-01T14:07:39.853Z,5.90
2022-12-01T14:10:28.305Z,4.92
2022-12-01T14:13:07.360Z,4.24
2022-12-01T14:15:45.371Z,4.03
2022-12-01T14:18:51.694Z,5.23
2022-12-01T14:21:48.786Z,6.54
2022-12-01T14:24:36.265Z,6.99
2022-12-01T14:27:12.994Z,6.30
2022-12-01T14:29:46.835Z,5.30
2022-12-01T14:32:29.662Z,4.46
2022-12-01T14:35:17.469Z,3.83
2022-12-01T14:37:53.974Z,3.36
2022-12-01T14:40:35.398Z,3.92
2022-12-01T14:43:33.568Z,5.42
2022-12-01T14:46:13.211Z,6.47
2022-12-01T14:48:49.828Z,6.73
2022-12-01T14:51:32.750Z,5.86
2022-12-01T14:54:30.069Z,4.83
2022-12-01T14:57:12.407Z,4.01
2022-12-01T15:00:04.843Z,3.45
2022-12-01T15:02:48.919Z,3.02
2022-12-01T15:05:26.094Z,3.17
2022-12-01T15:08:40.255Z,4.92
2022-12-01T15:11:23.262Z,6.59
2022-12-01T15:13:58.964Z,7.09
2022-12-01T15:16:43.656Z,6.30
2022-12-01T15:19:33.870Z,5.15
2022-12-01T15:22:16.323Z,4.27
2022-12-01T15:24:51.552Z,3.64
2022-12-01T15:27:32.230Z,3.18
2022-12-01T15:30:08.237Z,2.79
2022-12-01T15:32:46.071Z,3.45
2022-12-01T15:35:25.765Z,5.06
2022-12-01T15:38:01.124Z,6.13
2022-12-01T15:43:40.337Z,5.92
2022-12-01T15:46:20.165Z,4.80
2022-12-01T15:49:18.778Z,3.91
2022-12-01T15:51:53.828Z,3.21
2022-12-01T15:54:28.870Z,3.01
2022-12-01T15:57:04.151Z,3.95
2022-12-01T15:59:43.292Z,5.20
2022-12-01T16:02:32.189Z,6.25
2022-12-01T16:05:18.123Z,6.46
2022-12-01T16:10:46.296Z,4.28
2022-12-01T16:14:00.075Z,3.60
2022-12-01T16:16:49.554Z,2.94
2022-12-01T16:19:36.500Z,2.62
2022-12-01T16:22:22.594Z,3.86
2022-12-01T16:24:58.323Z,5.22
2022-12-01T16:27:35.109Z,5.69
2022-12-01T16:30:25.440Z,5.02
2022-12-01T16:33:08.674Z,4.11
2022-12-01T16:35:42.070Z,3.44
2022-12-01T16:38:22.703Z,2.97
2022-12-01T16:41:00.476Z,3.36
2022-12-01T16:43:34.114Z,4.72
2022-12-01T16:46:14.235Z,5.61
2022-12-01T16:48:47.853Z,5.12
2022-12-01T16:51:35.449Z,4.19
2022-12-01T16:54:17.133Z,3.34
2022-12-01T16:56:51.808Z,2.79
2022-12-01T16:59:25.366Z,2.53
2022-12-01T17:01:59.059Z,3.57
2022-12-01T17:04:32.511Z,4.75
2022-12-01T17:07:06.320Z,5.41
2022-12-01T17:09:40.686Z,5.22
2022-12-01T17:12:14.554Z,4.23
2022-12-01T17:14:48.522Z,3.35
2022-12-01T17:17:23.225Z,2.71
2022-12-01T17:19:58.492Z,2.27
2022-12-01T17:22:32.921Z,1.93
2022-12-01T17:25:09.994Z,1.66
2022-12-01T17:27:44.542Z,2.19
2022-12-01T17:30:19.822Z,3.95
2022-12-01T17:32:53.728Z,5.07
2022-12-01T17:35:27.943Z,5.66
2022-12-01T17:38:01.667Z,4.84
2022-12-01T17:40:36.219Z,3.84
2022-12-01T17:43:11.956Z,3.08
2022-12-01T17:45:46.259Z,2.54
2022-12-01T17:48:19.785Z,2.07
2022-12-01T17:50:53.970Z,1.69
2022-12-01T17:53:28.402Z,1.90
2022-12-01T17:56:01.801Z,3.34
2022-12-01T17:58:35.948Z,4.58
2022-12-01T18:01:13.325Z,5.45
2022-12-01T18:03:49.026Z,5.63
2022-12-01T18:06:23.657Z,4.67
2022-12-01T18:08:58.900Z,3.63
2022-12-01T18:11:33.842Z,2.91
2022-12-01T18:14:07.569Z,2.42
2022-12-01T18:16:41.028Z,3.40
2022-12-01T18:19:16.427Z,4.93
2022-12-01T18:21:51.331Z,5.75
2022-12-01T18:24:24.941Z,4.90
2022-12-01T18:26:59.701Z,3.78
2022-12-01T18:29:34.515Z,2.98
2022-12-01T18:32:08.788Z,2.34
2022-12-01T18:34:42.331Z,1.89
2022-12-01T18:37:16.320Z,1.52
2022-12-01T18:39:49.709Z,1.23
2022-12-01T18:42:24.777Z,1.00
2022-12-01T18:44:58.881Z,1.29
2022-12-01T18:47:33.259Z,3.36
2022-12-01T18:50:08.152Z,4.81
2022-12-01T18:52:41.817Z,5.38
2022-12-01T18:55:15.924Z,5.19
2022-12-01T18:57:49.762Z,4.17
2022-12-01T19:00:25.115Z,3.28
2022-12-01T19:02:58.978Z,2.66
2022-12-01T19:05:33.692Z,2.23
2022-12-01T19:08:08.467Z,1.85
2022-12-01T19:10:41.880Z,1.54
2022-12-01T19:13:15.193Z,1.34
2022-12-01T19:15:48.953Z,1.21
2022-12-01T19:18:22.526Z,1.25
2022-12-01T19:20:57.177Z,2.60
2022-12-01T19:23:32.533Z,3.93
2022-12-01T19:26:08.541Z,5.07
2022-12-01T19:28:45.867Z,6.01
2022-12-01T19:31:25.607Z,5.42
2022-12-01T19:34:00.338Z,4.20
2022-12-01T19:36:34.796Z,3.32
2022-12-01T19:39:08.458Z,2.65
2022-12-01T19:41:43.736Z,2.14
2022-12-01T19:44:17.412Z,1.70
2022-12-01T19:46:52.075Z,1.34
2022-12-01T19:49:25.981Z,1.71
2022-12-01T19:51:59.790Z,3.32
2022-12-01T19:54:35.562Z,4.42
2022-12-01T19:57:09.563Z,4.61
2022-12-01T19:59:42.949Z,3.80
2022-12-01T20:02:23.866Z,2.92
2022-12-01T20:04:59.783Z,2.20
2022-12-01T20:07:33.789Z,1.70
2022-12-01T20:10:08.118Z,1.51
2022-12-01T20:12:41.576Z,2.89
2022-12-01T20:15:16.747Z,4.14
2022-12-01T20:17:51.282Z,4.48
2022-12-01T20:20:25.635Z,3.73
2022-12-01T20:22:59.224Z,2.85
2022-12-01T20:25:32.861Z,2.16
2022-12-01T20:28:06.783Z,1.70
2022-12-01T20:30:44.836Z,1.34
2022-12-01T20:33:18.760Z,1.08
2022-12-01T20:35:52.809Z,2.14
2022-12-01T20:38:27.817Z,3.77
2022-12-01T20:41:01.500Z,4.53
2022-12-01T20:43:35.744Z,4.84
2022-12-01T20:46:10.785Z,4.02
2022-12-01T20:48:44.598Z,3.11
2022-12-01T20:51:19.627Z,2.52
2022-12-01T20:54:19.720Z,2.03
2022-12-01T20:56:47.222Z,1.57
2022-12-01T20:59:20.439Z,1.53
2022-12-01T21:01:53.938Z,3.04
2022-12-01T21:04:28.331Z,4.19
2022-12-01T21:07:02.984Z,4.64
2022-12-01T21:09:37.309Z,4.09
2022-12-01T21:12:36.210Z,3.07
2022-12-01T21:15:24.186Z,2.18
2022-12-01T21:18:04.722Z,1.63
2022-12-01T21:20:44.354Z,1.27
2022-12-01T21:23:20.440Z,1.74
2022-12-01T21:25:54.388Z,3.19
2022-12-01T21:28:29.634Z,4.30
2022-12-01T21:31:12.557Z,4.87
2022-12-01T21:33:47.524Z,4.05
2022-12-01T21:36:24.385Z,3.12
2022-12-01T21:39:15.786Z,2.33
2022-12-01T21:41:49.426Z,1.70
2022-12-01T21:44:29.666Z,1.51
2022-12-01T21:47:18.531Z,2.76
2022-12-01T21:49:55.974Z,3.88
2022-12-01T21:52:36.098Z,3.52
2022-12-01T21:55:35.284Z,2.74
2022-12-01T21:58:36.224Z,1.96
2022-12-01T22:01:24.905Z,1.38
2022-12-01T22:04:02.707Z,1.20
2022-12-01T22:06:42.268Z,2.69
2022-12-01T22:09:26.050Z,4.18
2022-12-01T22:12:07.237Z,4.93
2022-12-01T22:14:41.959Z,3.96
2022-12-01T22:17:23.395Z,2.90
2022-12-01T22:20:02.614Z,2.08
2022-12-01T22:22:39.666Z,1.44
2022-12-01T22:25:26.910Z,0.98
2022-12-01T22:28:03.421Z,1.30
2022-12-01T22:30:37.019Z,3.06
2022-12-01T22:33:21.603Z,4.27
2022-12-01T22:35:57.104Z,4.86
2022-12-01T22:38:40.890Z,4.08
2022-12-01T22:41:17.807Z,3.09
2022-12-01T22:43:55.008Z,2.36
2022-12-01T22:46:33.830Z,1.82
2022-12-01T22:49:22.597Z,1.98
2022-12-01T22:52:02.400Z,3.64
2022-12-01T22:54:43.650Z,3.93
2022-12-01T22:57:35.256Z,3.09
2022-12-01T23:00:22.037Z,2.26
2022-12-01T23:03:00.328Z,1.83
2022-12-01T23:05:37.618Z,2.88
2022-12-01T23:08:17.816Z,3.99
2022-12-01T23:10:52.637Z,3.46
2022-12-01T23:13:27.714Z,2.52
2022-12-01T23:16:01.206Z,1.82
2022-12-01T23:18:36.390Z,1.28
2022-12-01T23:21:13.702Z,0.90
2022-12-01T23:23:47.384Z,0.92
2022-12-01T23:26:20.612Z,2.43
2022-12-01T23:28:53.859Z,3.73
2022-12-01T23:31:28.306Z,4.32
2022-12-01T23:34:01.537Z,3.86
2022-12-01T23:36:37.115Z,2.90
2022-12-01T23:39:17.983Z,2.21
2022-12-01T23:41:53.312Z,1.64
2022-12-01T23:44:40.538Z,1.23
2022-12-01T23:47:24.023Z,1.36
2022-12-01T23:50:02.300Z,2.96
2022-12-01T23:52:40.170Z,4.06
2022-12-01T23:55:23.788Z,4.73
2022-12-01T23:57:58.420Z,4.03
